sensor_id;sensor_type;location;lat;lon;timestamp;P1;durP1;ratioP1;P2;durP2;ratioP2
73954;SDS011;62306;52.516;13.290;2022-12-18T00:01:33;72.05;;;21.42;;
73954;SDS011;62306;52.516;13.290;2022-12-18T00:04:01;65.25;;;21.00;;
73954;SDS011;62306;52.516;13.290;2022-12-18T00:06:33;71.50;;;20.80;;
73954;SDS011;62306;52.516;13.290;2022-12-18T00:09:01;71.78;;;22.42;;
73954;SDS011;62306;52.516;13.290;2022-12-18T00:11:30;70.03;;;21.75;;
73954;SDS011;62306;52.516;13.290;2022-12-18T00:13:58;62.08;;;20.98;;
73954;SDS011;62306;52.516;13.290;2022-12-18T00:16:26;73.85;;;22.10;;
73954;SDS011;62306;52.516;13.290;2022-12-18T00:18:55;67.97;;;21.20;;
73954;SDS011;62306;52.516;13.290;2022-12-18T00:21:26;66.38;;;20.42;;
73954;SDS011;62306;52.516;13.290;2022-12-18T00:23:54;74.70;;;21.13;;
73954;SDS011;62306;52.516;13.290;2022-12-18T00:26:22;57.78;;;19.65;;
73954;SDS011;62306;52.516;13.290;2022-12-18T00:28:52;73.40;;;22.38;;
73954;SDS011;62306;52.516;13.290;2022-12-18T00:31:21;69.18;;;20.00;;
73954;SDS011;62306;52.516;13.290;2022-12-18T00:33:49;64.05;;;19.08;;
73954;SDS011;62306;52.516;13.290;2022-12-18T00:36:17;65.15;;;19.05;;
73954;SDS011;62306;52.516;13.290;2022-12-18T00:38:46;68.50;;;18.85;;
73954;SDS011;62306;52.516;13.290;2022-12-18T00:41:14;58.80;;;18.27;;
73954;SDS011;62306;52.516;13.290;2022-12-18T00:44:04;59.53;;;18.17;;
73954;SDS011;62306;52.516;13.290;2022-12-18T00:46:31;56.30;;;17.55;;
73954;SDS011;62306;52.516;13.290;2022-12-18T00:48:59;51.38;;;17.70;;
73954;SDS011;62306;52.516;13.290;2022-12-18T00:51:26;52.97;;;18.08;;
73954;SDS011;62306;52.516;13.290;2022-12-18T00:53:53;59.38;;;19.38;;
73954;SDS011;62306;52.516;13.290;2022-12-18T00:56:23;63.53;;;19.75;;
73954;SDS011;62306;52.516;13.290;2022-12-18T00:58:50;57.92;;;18.55;;
73954;SDS011;62306;52.516;13.290;2022-12-18T01:01:19;58.15;;;19.67;;
73954;SDS011;62306;52.516;13.290;2022-12-18T01:03:46;59.92;;;18.40;;
73954;SDS011;62306;52.516;13.290;2022-12-18T01:06:13;63.45;;;18.30;;
73954;SDS011;62306;52.516;13.290;2022-12-18T01:08:41;61.20;;;19.48;;
73954;SDS011;62306;52.516;13.290;2022-12-18T01:11:09;61.20;;;18.95;;
73954;SDS011;62306;52.516;13.290;2022-12-18T01:13:36;55.35;;;18.67;;
73954;SDS011;62306;52.516;13.290;2022-12-18T01:16:04;58.92;;;19.38;;
73954;SDS011;62306;52.516;13.290;2022-12-18T01:18:32;66.70;;;21.27;;
73954;SDS011;62306;52.516;13.290;2022-12-18T01:20:59;64.65;;;19.58;;
73954;SDS011;62306;52.516;13.290;2022-12-18T01:23:26;65.35;;;18.80;;
73954;SDS011;62306;52.516;13.290;2022-12-18T01:25:54;59.22;;;18.65;;
73954;SDS011;62306;52.516;13.290;2022-12-18T01:28:21;67.53;;;20.13;;
73954;SDS011;62306;52.516;13.290;2022-12-18T01:30:47;66.18;;;20.05;;
73954;SDS011;62306;52.516;13.290;2022-12-18T01:33:14;68.45;;;20.85;;
73954;SDS011;62306;52.516;13.290;2022-12-18T01:35:43;69.38;;;19.77;;
73954;SDS011;62306;52.516;13.290;2022-12-18T01:38:10;71.78;;;22.10;;
73954;SDS011;62306;52.516;13.290;2022-12-18T01:40:37;72.70;;;21.77;;
73954;SDS011;62306;52.516;13.290;2022-12-18T01:43:04;65.85;;;19.83;;
73954;SDS011;62306;52.516;13.290;2022-12-18T01:45:31;62.90;;;18.92;;
73954;SDS011;62306;52.516;13.290;2022-12-18T01:47:59;59.15;;;19.85;;
73954;SDS011;62306;52.516;13.290;2022-12-18T01:50:29;65.80;;;20.50;;
73954;SDS011;62306;52.516;13.290;2022-12-18T01:53:02;63.35;;;20.20;;
73954;SDS011;62306;52.516;13.290;2022-12-18T01:55:35;64.47;;;21.08;;
73954;SDS011;62306;52.516;13.290;2022-12-18T01:58:06;67.30;;;21.23;;
73954;SDS011;62306;52.516;13.290;2022-12-18T02:00:33;69.20;;;20.92;;
73954;SDS011;62306;52.516;13.290;2022-12-18T02:03:00;69.22;;;21.33;;
73954;SDS011;62306;52.516;13.290;2022-12-18T02:05:29;76.57;;;21.80;;
73954;SDS011;62306;52.516;13.290;2022-12-18T02:08:09;73.30;;;21.20;;
73954;SDS011;62306;52.516;13.290;2022-12-18T02:10:44;65.22;;;19.92;;
73954;SDS011;62306;52.516;13.290;2022-12-18T02:13:19;67.88;;;21.30;;
73954;SDS011;62306;52.516;13.290;2022-12-18T02:15:54;72.90;;;20.70;;
73954;SDS011;62306;52.516;13.290;2022-12-18T02:18:27;66.90;;;21.55;;
73954;SDS011;62306;52.516;13.290;2022-12-18T02:20:59;68.30;;;20.85;;
73954;SDS011;62306;52.516;13.290;2022-12-18T02:23:40;57.80;;;19.40;;
73954;SDS011;62306;52.516;13.290;2022-12-18T02:26:21;63.55;;;20.27;;
73954;SDS011;62306;52.516;13.290;2022-12-18T02:29:00;59.58;;;17.77;;
73954;SDS011;62306;52.516;13.290;2022-12-18T02:31:33;63.35;;;18.83;;
73954;SDS011;62306;52.516;13.290;2022-12-18T02:34:04;63.25;;;18.85;;
73954;SDS011;62306;52.516;13.290;2022-12-18T02:36:34;58.80;;;18.05;;
73954;SDS011;62306;52.516;13.290;2022-12-18T02:39:05;57.80;;;18.23;;
73954;SDS011;62306;52.516;13.290;2022-12-18T02:41:36;59.47;;;18.33;;
73954;SDS011;62306;52.516;13.290;2022-12-18T02:44:06;58.28;;;16.48;;
73954;SDS011;62306;52.516;13.290;2022-12-18T02:46:36;63.15;;;19.60;;
73954;SDS011;62306;52.516;13.290;2022-12-18T02:49:09;63.17;;;19.83;;
73954;SDS011;62306;52.516;13.290;2022-12-18T02:51:48;63.58;;;18.48;;
73954;SDS011;62306;52.516;13.290;2022-12-18T02:54:22;65.53;;;19.33;;
73954;SDS011;62306;52.516;13.290;2022-12-18T02:56:58;66.65;;;19.80;;
73954;SDS011;62306;52.516;13.290;2022-12-18T02:59:33;58.55;;;19.65;;
73954;SDS011;62306;52.516;13.290;2022-12-18T03:02:07;61.67;;;17.60;;
73954;SDS011;62306;52.516;13.290;2022-12-18T03:04:46;59.95;;;18.73;;
73954;SDS011;62306;52.516;13.290;2022-12-18T03:07:16;63.50;;;20.50;;
73954;SDS011;62306;52.516;13.290;2022-12-18T03:09:48;60.85;;;18.33;;
73954;SDS011;62306;52.516;13.290;2022-12-18T03:12:21;60.97;;;19.13;;
73954;SDS011;62306;52.516;13.290;2022-12-18T03:14:54;55.55;;;18.42;;
73954;SDS011;62306;52.516;13.290;2022-12-18T03:17:26;56.42;;;17.35;;
73954;SDS011;62306;52.516;13.290;2022-12-18T03:19:56;62.65;;;18.60;;
73954;SDS011;62306;52.516;13.290;2022-12-18T03:22:29;65.03;;;18.98;;
73954;SDS011;62306;52.516;13.290;2022-12-18T03:24:58;70.03;;;20.20;;
73954;SDS011;62306;52.516;13.290;2022-12-18T03:27:28;58.17;;;17.63;;
73954;SDS011;62306;52.516;13.290;2022-12-18T03:29:59;64.95;;;18.00;;
73954;SDS011;62306;52.516;13.290;2022-12-18T03:32:33;65.00;;;18.92;;
73954;SDS011;62306;52.516;13.290;2022-12-18T03:35:05;55.38;;;18.92;;
73954;SDS011;62306;52.516;13.290;2022-12-18T03:37:34;67.40;;;19.05;;
73954;SDS011;62306;52.516;13.290;2022-12-18T03:40:01;69.55;;;19.35;;
73954;SDS011;62306;52.516;13.290;2022-12-18T03:42:31;65.97;;;19.40;;
73954;SDS011;62306;52.516;13.290;2022-12-18T03:45:06;64.93;;;18.73;;
73954;SDS011;62306;52.516;13.290;2022-12-18T03:47:38;66.72;;;20.48;;
73954;SDS011;62306;52.516;13.290;2022-12-18T03:50:14;67.03;;;19.58;;
73954;SDS011;62306;52.516;13.290;2022-12-18T03:52:45;67.03;;;20.15;;
73954;SDS011;62306;52.516;13.290;2022-12-18T03:55:16;64.55;;;19.42;;
73954;SDS011;62306;52.516;13.290;2022-12-18T03:57:47;70.55;;;18.90;;
73954;SDS011;62306;52.516;13.290;2022-12-18T04:00:16;69.60;;;18.77;;
73954;SDS011;62306;52.516;13.290;2022-12-18T04:02:46;67.93;;;19.52;;
73954;SDS011;62306;52.516;13.290;2022-12-18T04:05:17;62.45;;;19.50;;
73954;SDS011;62306;52.516;13.290;2022-12-18T04:07:45;59.03;;;18.83;;
73954;SDS011;62306;52.516;13.290;2022-12-18T04:10:16;62.10;;;17.05;;
73954;SDS011;62306;52.516;13.290;2022-12-18T04:12:44;66.93;;;19.65;;
73954;SDS011;62306;52.516;13.290;2022-12-18T04:15:12;60.33;;;19.08;;
73954;SDS011;62306;52.516;13.290;2022-12-18T04:17:42;71.97;;;20.42;;
73954;SDS011;62306;52.516;13.290;2022-12-18T04:20:13;64.13;;;20.60;;
73954;SDS011;62306;52.516;13.290;2022-12-18T04:22:40;68.53;;;20.83;;
73954;SDS011;62306;52.516;13.290;2022-12-18T04:25:08;76.40;;;22.00;;
73954;SDS011;62306;52.516;13.290;2022-12-18T04:27:38;64.90;;;18.27;;
73954;SDS011;62306;52.516;13.290;2022-12-18T04:30:06;73.20;;;20.50;;
73954;SDS011;62306;52.516;13.290;2022-12-18T04:32:35;71.18;;;20.60;;
73954;SDS011;62306;52.516;13.290;2022-12-18T04:35:02;73.25;;;20.58;;
73954;SDS011;62306;52.516;13.290;2022-12-18T04:37:31;68.80;;;20.77;;
73954;SDS011;62306;52.516;13.290;2022-12-18T04:39:58;68.82;;;19.60;;
73954;SDS011;62306;52.516;13.290;2022-12-18T04:42:25;71.68;;;21.08;;
73954;SDS011;62306;52.516;13.290;2022-12-18T04:44:52;79.60;;;20.63;;
73954;SDS011;62306;52.516;13.290;2022-12-18T04:47:19;72.80;;;21.85;;
73954;SDS011;62306;52.516;13.290;2022-12-18T04:49:48;79.18;;;21.83;;
73954;SDS011;62306;52.516;13.290;2022-12-18T04:52:15;81.80;;;21.77;;
73954;SDS011;62306;52.516;13.290;2022-12-18T04:54:42;86.45;;;21.98;;
73954;SDS011;62306;52.516;13.290;2022-12-18T04:57:09;85.97;;;24.25;;
73954;SDS011;62306;52.516;13.290;2022-12-18T04:59:36;88.28;;;23.58;;
73954;SDS011;62306;52.516;13.290;2022-12-18T05:02:02;89.07;;;23.20;;
73954;SDS011;62306;52.516;13.290;2022-12-18T05:04:29;100.80;;;25.95;;
73954;SDS011;62306;52.516;13.290;2022-12-18T05:06:58;97.35;;;24.85;;
73954;SDS011;62306;52.516;13.290;2022-12-18T05:09:25;87.13;;;23.38;;
73954;SDS011;62306;52.516;13.290;2022-12-18T05:11:52;91.60;;;24.55;;
73954;SDS011;62306;52.516;13.290;2022-12-18T05:14:19;82.45;;;24.77;;
73954;SDS011;62306;52.516;13.290;2022-12-18T05:16:46;95.53;;;25.33;;
73954;SDS011;62306;52.516;13.290;2022-12-18T05:19:13;93.53;;;24.50;;
73954;SDS011;62306;52.516;13.290;2022-12-18T05:21:40;105.22;;;28.30;;
73954;SDS011;62306;52.516;13.290;2022-12-18T05:24:08;100.38;;;26.48;;
73954;SDS011;62306;52.516;13.290;2022-12-18T05:26:35;98.03;;;26.00;;
73954;SDS011;62306;52.516;13.290;2022-12-18T05:29:02;99.55;;;27.77;;
73954;SDS011;62306;52.516;13.290;2022-12-18T05:31:29;111.70;;;27.50;;
73954;SDS011;62306;52.516;13.290;2022-12-18T05:33:57;98.65;;;26.40;;
73954;SDS011;62306;52.516;13.290;2022-12-18T05:36:24;120.03;;;30.23;;
73954;SDS011;62306;52.516;13.290;2022-12-18T05:38:51;109.05;;;28.33;;
73954;SDS011;62306;52.516;13.290;2022-12-18T05:41:19;98.78;;;27.23;;
73954;SDS011;62306;52.516;13.290;2022-12-18T05:43:46;97.65;;;27.55;;
73954;SDS011;62306;52.516;13.290;2022-12-18T05:46:15;97.00;;;28.75;;
73954;SDS011;62306;52.516;13.290;2022-12-18T05:48:43;102.95;;;29.27;;
73954;SDS011;62306;52.516;13.290;2022-12-18T05:51:12;114.63;;;30.45;;
73954;SDS011;62306;52.516;13.290;2022-12-18T05:53:41;117.00;;;30.50;;
73954;SDS011;62306;52.516;13.290;2022-12-18T05:56:10;105.60;;;27.77;;
73954;SDS011;62306;52.516;13.290;2022-12-18T05:58:41;89.47;;;26.27;;
73954;SDS011;62306;52.516;13.290;2022-12-18T06:01:08;90.35;;;25.48;;
73954;SDS011;62306;52.516;13.290;2022-12-18T06:03:37;89.72;;;24.48;;
73954;SDS011;62306;52.516;13.290;2022-12-18T06:06:11;105.85;;;25.00;;
73954;SDS011;62306;52.516;13.290;2022-12-18T06:08:39;90.78;;;25.23;;
73954;SDS011;62306;52.516;13.290;2022-12-18T06:11:07;97.97;;;25.40;;
73954;SDS011;62306;52.516;13.290;2022-12-18T06:13:33;95.28;;;26.63;;
73954;SDS011;62306;52.516;13.290;2022-12-18T06:16:03;92.05;;;26.33;;
73954;SDS011;62306;52.516;13.290;2022-12-18T06:18:30;90.70;;;24.98;;
73954;SDS011;62306;52.516;13.290;2022-12-18T06:20:58;89.88;;;23.83;;
73954;SDS011;62306;52.516;13.290;2022-12-18T06:23:26;89.07;;;23.40;;
73954;SDS011;62306;52.516;13.290;2022-12-18T06:25:53;75.93;;;23.50;;
73954;SDS011;62306;52.516;13.290;2022-12-18T06:28:20;83.03;;;23.70;;
73954;SDS011;62306;52.516;13.290;2022-12-18T06:30:47;79.35;;;21.80;;
73954;SDS011;62306;52.516;13.290;2022-12-18T06:33:16;75.28;;;21.52;;
73954;SDS011;62306;52.516;13.290;2022-12-18T06:35:43;77.30;;;20.80;;
73954;SDS011;62306;52.516;13.290;2022-12-18T06:38:10;78.05;;;23.20;;
73954;SDS011;62306;52.516;13.290;2022-12-18T06:40:37;87.30;;;23.85;;
73954;SDS011;62306;52.516;13.290;2022-12-18T06:43:05;75.63;;;22.05;;
73954;SDS011;62306;52.516;13.290;2022-12-18T06:45:32;95.22;;;26.33;;
73954;SDS011;62306;52.516;13.290;2022-12-18T06:47:59;85.70;;;24.83;;
73954;SDS011;62306;52.516;13.290;2022-12-18T06:50:28;88.80;;;24.60;;
73954;SDS011;62306;52.516;13.290;2022-12-18T06:52:55;86.35;;;25.23;;
73954;SDS011;62306;52.516;13.290;2022-12-18T06:55:22;88.10;;;25.65;;
73954;SDS011;62306;52.516;13.290;2022-12-18T06:57:49;100.53;;;25.40;;
73954;SDS011;62306;52.516;13.290;2022-12-18T07:00:16;94.65;;;27.77;;
73954;SDS011;62306;52.516;13.290;2022-12-18T07:02:44;90.40;;;26.10;;
73954;SDS011;62306;52.516;13.290;2022-12-18T07:05:11;96.93;;;28.00;;
73954;SDS011;62306;52.516;13.290;2022-12-18T07:07:39;84.53;;;25.05;;
73954;SDS011;62306;52.516;13.290;2022-12-18T07:10:06;83.13;;;23.52;;
73954;SDS011;62306;52.516;13.290;2022-12-18T07:12:34;94.20;;;26.38;;
73954;SDS011;62306;52.516;13.290;2022-12-18T07:15:01;89.78;;;25.08;;
73954;SDS011;62306;52.516;13.290;2022-12-18T07:17:28;87.97;;;25.13;;
73954;SDS011;62306;52.516;13.290;2022-12-18T07:19:55;90.80;;;26.17;;
73954;SDS011;62306;52.516;13.290;2022-12-18T07:22:22;90.93;;;26.83;;
73954;SDS011;62306;52.516;13.290;2022-12-18T07:24:52;94.10;;;26.88;;
73954;SDS011;62306;52.516;13.290;2022-12-18T07:27:20;90.82;;;26.27;;
73954;SDS011;62306;52.516;13.290;2022-12-18T07:29:47;101.50;;;27.42;;
73954;SDS011;62306;52.516;13.290;2022-12-18T07:32:14;96.93;;;29.00;;
73954;SDS011;62306;52.516;13.290;2022-12-18T07:34:41;114.68;;;30.80;;
73954;SDS011;62306;52.516;13.290;2022-12-18T07:37:08;109.00;;;29.65;;
73954;SDS011;62306;52.516;13.290;2022-12-18T07:39:35;92.93;;;27.25;;
73954;SDS011;62306;52.516;13.290;2022-12-18T07:42:09;101.38;;;27.67;;
73954;SDS011;62306;52.516;13.290;2022-12-18T07:44:54;90.97;;;27.38;;
73954;SDS011;62306;52.516;13.290;2022-12-18T07:47:21;92.75;;;26.23;;
73954;SDS011;62306;52.516;13.290;2022-12-18T07:49:48;83.80;;;25.40;;
73954;SDS011;62306;52.516;13.290;2022-12-18T07:52:15;83.72;;;24.83;;
73954;SDS011;62306;52.516;13.290;2022-12-18T07:54:42;74.93;;;21.88;;
73954;SDS011;62306;52.516;13.290;2022-12-18T07:57:10;79.03;;;23.42;;
73954;SDS011;62306;52.516;13.290;2022-12-18T07:59:37;82.50;;;23.88;;
73954;SDS011;62306;52.516;13.290;2022-12-18T08:02:04;83.82;;;24.75;;
73954;SDS011;62306;52.516;13.290;2022-12-18T08:04:34;77.40;;;23.50;;
73954;SDS011;62306;52.516;13.290;2022-12-18T08:07:02;83.95;;;23.30;;
73954;SDS011;62306;52.516;13.290;2022-12-18T08:09:29;76.68;;;23.08;;
73954;SDS011;62306;52.516;13.290;2022-12-18T08:11:56;86.20;;;21.70;;
73954;SDS011;62306;52.516;13.290;2022-12-18T08:14:24;73.80;;;21.77;;
73954;SDS011;62306;52.516;13.290;2022-12-18T08:16:51;64.43;;;19.35;;
73954;SDS011;62306;52.516;13.290;2022-12-18T08:19:18;70.30;;;22.35;;
73954;SDS011;62306;52.516;13.290;2022-12-18T08:21:45;72.65;;;20.75;;
73954;SDS011;62306;52.516;13.290;2022-12-18T08:24:12;65.63;;;18.75;;
73954;SDS011;62306;52.516;13.290;2022-12-18T08:26:39;73.25;;;21.45;;
73954;SDS011;62306;52.516;13.290;2022-12-18T08:29:06;74.95;;;23.70;;
73954;SDS011;62306;52.516;13.290;2022-12-18T08:31:34;79.10;;;24.75;;
73954;SDS011;62306;52.516;13.290;2022-12-18T08:34:01;73.07;;;22.33;;
73954;SDS011;62306;52.516;13.290;2022-12-18T08:36:28;78.28;;;23.23;;
73954;SDS011;62306;52.516;13.290;2022-12-18T08:38:56;68.40;;;21.52;;
73954;SDS011;62306;52.516;13.290;2022-12-18T08:41:23;69.97;;;20.38;;
73954;SDS011;62306;52.516;13.290;2022-12-18T08:43:50;72.15;;;20.48;;
73954;SDS011;62306;52.516;13.290;2022-12-18T08:46:36;73.53;;;21.42;;
73954;SDS011;62306;52.516;13.290;2022-12-18T08:49:04;71.30;;;20.45;;
73954;SDS011;62306;52.516;13.290;2022-12-18T08:51:32;68.50;;;20.35;;
73954;SDS011;62306;52.516;13.290;2022-12-18T08:54:00;76.65;;;23.67;;
73954;SDS011;62306;52.516;13.290;2022-12-18T08:56:28;75.03;;;20.95;;
73954;SDS011;62306;52.516;13.290;2022-12-18T08:58:56;70.70;;;21.33;;
73954;SDS011;62306;52.516;13.290;2022-12-18T09:01:23;77.90;;;23.42;;
73954;SDS011;62306;52.516;13.290;2022-12-18T09:03:51;76.28;;;22.60;;
73954;SDS011;62306;52.516;13.290;2022-12-18T09:06:19;76.50;;;22.05;;
73954;SDS011;62306;52.516;13.290;2022-12-18T09:08:47;76.40;;;21.40;;
73954;SDS011;62306;52.516;13.290;2022-12-18T09:11:18;69.97;;;21.83;;
73954;SDS011;62306;52.516;13.290;2022-12-18T09:13:47;68.65;;;21.83;;
73954;SDS011;62306;52.516;13.290;2022-12-18T09:16:15;76.80;;;22.85;;
73954;SDS011;62306;52.516;13.290;2022-12-18T09:18:42;71.35;;;23.48;;
73954;SDS011;62306;52.516;13.290;2022-12-18T09:21:11;77.38;;;23.95;;
73954;SDS011;62306;52.516;13.290;2022-12-18T09:23:40;80.03;;;22.75;;
73954;SDS011;62306;52.516;13.290;2022-12-18T09:26:07;76.57;;;22.10;;
73954;SDS011;62306;52.516;13.290;2022-12-18T09:28:34;67.85;;;23.33;;
73954;SDS011;62306;52.516;13.290;2022-12-18T09:31:03;68.53;;;21.58;;
73954;SDS011;62306;52.516;13.290;2022-12-18T09:33:32;62.35;;;20.83;;
73954;SDS011;62306;52.516;13.290;2022-12-18T09:36:00;67.13;;;21.20;;
73954;SDS011;62306;52.516;13.290;2022-12-18T09:38:30;69.22;;;21.40;;
73954;SDS011;62306;52.516;13.290;2022-12-18T09:40:58;65.65;;;21.05;;
73954;SDS011;62306;52.516;13.290;2022-12-18T09:43:29;68.60;;;21.85;;
73954;SDS011;62306;52.516;13.290;2022-12-18T09:46:05;74.88;;;21.95;;
73954;SDS011;62306;52.516;13.290;2022-12-18T09:48:35;76.20;;;22.67;;
73954;SDS011;62306;52.516;13.290;2022-12-18T09:51:09;68.57;;;21.92;;
73954;SDS011;62306;52.516;13.290;2022-12-18T09:53:41;75.18;;;22.75;;
73954;SDS011;62306;52.516;13.290;2022-12-18T09:56:14;70.00;;;20.13;;
73954;SDS011;62306;52.516;13.290;2022-12-18T09:58:45;70.13;;;23.25;;
73954;SDS011;62306;52.516;13.290;2022-12-18T10:01:18;74.38;;;22.83;;
73954;SDS011;62306;52.516;13.290;2022-12-18T10:03:47;64.82;;;21.60;;
73954;SDS011;62306;52.516;13.290;2022-12-18T10:06:15;65.28;;;20.70;;
73954;SDS011;62306;52.516;13.290;2022-12-18T10:08:51;63.60;;;19.77;;
73954;SDS011;62306;52.516;13.290;2022-12-18T10:11:26;62.65;;;19.13;;
73954;SDS011;62306;52.516;13.290;2022-12-18T10:14:01;63.35;;;20.63;;
73954;SDS011;62306;52.516;13.290;2022-12-18T10:16:34;68.63;;;20.75;;
73954;SDS011;62306;52.516;13.290;2022-12-18T10:19:15;70.45;;;20.63;;
73954;SDS011;62306;52.516;13.290;2022-12-18T10:21:51;71.97;;;23.63;;
73954;SDS011;62306;52.516;13.290;2022-12-18T10:24:30;70.65;;;20.02;;
73954;SDS011;62306;52.516;13.290;2022-12-18T10:27:08;70.18;;;19.90;;
73954;SDS011;62306;52.516;13.290;2022-12-18T10:29:40;55.20;;;19.55;;
73954;SDS011;62306;52.516;13.290;2022-12-18T10:32:08;72.15;;;21.17;;
73954;SDS011;62306;52.516;13.290;2022-12-18T10:34:41;63.15;;;19.60;;
73954;SDS011;62306;52.516;13.290;2022-12-18T10:37:12;55.08;;;19.50;;
73954;SDS011;62306;52.516;13.290;2022-12-18T10:39:45;67.47;;;20.88;;
73954;SDS011;62306;52.516;13.290;2022-12-18T10:42:16;54.30;;;18.15;;
73954;SDS011;62306;52.516;13.290;2022-12-18T10:44:44;56.72;;;21.10;;
73954;SDS011;62306;52.516;13.290;2022-12-18T10:47:12;65.05;;;22.92;;
73954;SDS011;62306;52.516;13.290;2022-12-18T10:49:45;67.10;;;22.10;;
73954;SDS011;62306;52.516;13.290;2022-12-18T10:52:16;70.85;;;21.70;;
73954;SDS011;62306;52.516;13.290;2022-12-18T10:54:50;72.25;;;22.27;;
73954;SDS011;62306;52.516;13.290;2022-12-18T10:57:29;77.28;;;22.23;;
73954;SDS011;62306;52.516;13.290;2022-12-18T11:00:00;58.17;;;20.10;;
73954;SDS011;62306;52.516;13.290;2022-12-18T11:02:46;66.72;;;22.23;;
73954;SDS011;62306;52.516;13.290;2022-12-18T11:05:23;70.72;;;23.80;;
73954;SDS011;62306;52.516;13.290;2022-12-18T11:07:56;59.92;;;21.35;;
73954;SDS011;62306;52.516;13.290;2022-12-18T11:10:30;68.15;;;20.90;;
73954;SDS011;62306;52.516;13.290;2022-12-18T11:13:09;57.38;;;20.08;;
73954;SDS011;62306;52.516;13.290;2022-12-18T11:15:39;55.70;;;20.92;;
73954;SDS011;62306;52.516;13.290;2022-12-18T11:18:14;69.43;;;22.08;;
73954;SDS011;62306;52.516;13.290;2022-12-18T11:20:50;70.07;;;21.95;;
73954;SDS011;62306;52.516;13.290;2022-12-18T11:23:18;65.25;;;22.02;;
73954;SDS011;62306;52.516;13.290;2022-12-18T11:25:53;63.10;;;20.92;;
73954;SDS011;62306;52.516;13.290;2022-12-18T11:28:26;76.18;;;21.52;;
73954;SDS011;62306;52.516;13.290;2022-12-18T11:31:09;65.97;;;20.40;;
73954;SDS011;62306;52.516;13.290;2022-12-18T11:33:44;76.75;;;24.58;;
73954;SDS011;62306;52.516;13.290;2022-12-18T11:36:16;72.50;;;24.63;;
73954;SDS011;62306;52.516;13.290;2022-12-18T11:38:44;66.85;;;21.60;;
73954;SDS011;62306;52.516;13.290;2022-12-18T11:41:18;68.40;;;22.83;;
73954;SDS011;62306;52.516;13.290;2022-12-18T11:44:10;72.57;;;21.88;;
73954;SDS011;62306;52.516;13.290;2022-12-18T11:46:45;65.30;;;22.55;;
73954;SDS011;62306;52.516;13.290;2022-12-18T11:49:17;66.68;;;21.80;;
73954;SDS011;62306;52.516;13.290;2022-12-18T11:51:50;68.38;;;23.80;;
73954;SDS011;62306;52.516;13.290;2022-12-18T11:54:21;65.38;;;23.23;;
73954;SDS011;62306;52.516;13.290;2022-12-18T11:56:50;73.78;;;25.42;;
73954;SDS011;62306;52.516;13.290;2022-12-18T12:01:58;56.95;;;19.70;;
73954;SDS011;62306;52.516;13.290;2022-12-18T12:04:45;62.28;;;21.00;;
73954;SDS011;62306;52.516;13.290;2022-12-18T12:07:34;59.38;;;19.92;;
73954;SDS011;62306;52.516;13.290;2022-12-18T12:10:11;70.95;;;23.70;;
73954;SDS011;62306;52.516;13.290;2022-12-18T12:15:28;63.60;;;21.10;;
73954;SDS011;62306;52.516;13.290;2022-12-18T12:18:07;67.07;;;23.45;;
73954;SDS011;62306;52.516;13.290;2022-12-18T12:20:45;66.88;;;21.88;;
73954;SDS011;62306;52.516;13.290;2022-12-18T12:23:22;66.00;;;23.38;;
73954;SDS011;62306;52.516;13.290;2022-12-18T12:25:59;78.30;;;23.25;;
73954;SDS011;62306;52.516;13.290;2022-12-18T12:28:40;67.85;;;22.02;;
73954;SDS011;62306;52.516;13.290;2022-12-18T12:31:22;59.20;;;20.85;;
73954;SDS011;62306;52.516;13.290;2022-12-18T12:34:00;69.63;;;22.52;;
73954;SDS011;62306;52.516;13.290;2022-12-18T12:36:37;63.83;;;21.98;;
73954;SDS011;62306;52.516;13.290;2022-12-18T12:39:20;54.58;;;17.35;;
73954;SDS011;62306;52.516;13.290;2022-12-18T12:41:55;53.53;;;21.10;;
73954;SDS011;62306;52.516;13.290;2022-12-18T12:44:42;63.92;;;21.30;;
73954;SDS011;62306;52.516;13.290;2022-12-18T12:47:13;67.78;;;21.17;;
73954;SDS011;62306;52.516;13.290;2022-12-18T12:49:43;58.53;;;20.13;;
73954;SDS011;62306;52.516;13.290;2022-12-18T12:52:14;67.95;;;22.73;;
73954;SDS011;62306;52.516;13.290;2022-12-18T12:54:48;60.33;;;21.55;;
73954;SDS011;62306;52.516;13.290;2022-12-18T12:57:17;64.55;;;20.85;;
73954;SDS011;62306;52.516;13.290;2022-12-18T12:59:49;58.97;;;20.88;;
73954;SDS011;62306;52.516;13.290;2022-12-18T13:02:28;64.43;;;22.10;;
73954;SDS011;62306;52.516;13.290;2022-12-18T13:05:02;99.63;;;34.75;;
73954;SDS011;62306;52.516;13.290;2022-12-18T13:07:37;65.35;;;25.30;;
73954;SDS011;62306;52.516;13.290;2022-12-18T13:10:12;58.58;;;21.60;;
73954;SDS011;62306;52.516;13.290;2022-12-18T13:13:06;66.13;;;20.30;;
73954;SDS011;62306;52.516;13.290;2022-12-18T13:15:37;66.05;;;22.23;;
73954;SDS011;62306;52.516;13.290;2022-12-18T13:18:15;57.92;;;20.80;;
73954;SDS011;62306;52.516;13.290;2022-12-18T13:20:44;63.55;;;22.02;;
73954;SDS011;62306;52.516;13.290;2022-12-18T13:23:25;76.53;;;24.30;;
73954;SDS011;62306;52.516;13.290;2022-12-18T13:29:05;56.10;;;19.33;;
73954;SDS011;62306;52.516;13.290;2022-12-18T13:34:27;61.95;;;22.05;;
73954;SDS011;62306;52.516;13.290;2022-12-18T13:36:56;68.00;;;22.73;;
73954;SDS011;62306;52.516;13.290;2022-12-18T13:39:44;60.58;;;22.08;;
73954;SDS011;62306;52.516;13.290;2022-12-18T13:48:34;62.30;;;21.05;;
73954;SDS011;62306;52.516;13.290;2022-12-18T13:51:04;69.80;;;23.23;;
73954;SDS011;62306;52.516;13.290;2022-12-18T13:53:35;66.20;;;24.38;;
73954;SDS011;62306;52.516;13.290;2022-12-18T13:56:05;61.03;;;24.95;;
73954;SDS011;62306;52.516;13.290;2022-12-18T13:58:32;63.10;;;22.58;;
73954;SDS011;62306;52.516;13.290;2022-12-18T14:00:59;63.28;;;23.35;;
73954;SDS011;62306;52.516;13.290;2022-12-18T14:03:29;68.07;;;25.58;;
73954;SDS011;62306;52.516;13.290;2022-12-18T14:06:00;65.97;;;23.15;;
73954;SDS011;62306;52.516;13.290;2022-12-18T14:08:37;62.17;;;22.83;;
73954;SDS011;62306;52.516;13.290;2022-12-18T14:11:07;61.75;;;23.00;;
73954;SDS011;62306;52.516;13.290;2022-12-18T14:13:44;64.82;;;23.85;;
73954;SDS011;62306;52.516;13.290;2022-12-18T14:16:13;61.70;;;23.25;;
73954;SDS011;62306;52.516;13.290;2022-12-18T14:18:43;61.22;;;22.52;;
73954;SDS011;62306;52.516;13.290;2022-12-18T14:21:21;61.08;;;24.63;;
73954;SDS011;62306;52.516;13.290;2022-12-18T14:24:02;74.00;;;26.48;;
73954;SDS011;62306;52.516;13.290;2022-12-18T14:26:31;62.42;;;23.13;;
73954;SDS011;62306;52.516;13.290;2022-12-18T14:28:59;70.88;;;26.55;;
73954;SDS011;62306;52.516;13.290;2022-12-18T14:31:28;72.93;;;26.65;;
73954;SDS011;62306;52.516;13.290;2022-12-18T14:33:57;77.20;;;28.90;;
73954;SDS011;62306;52.516;13.290;2022-12-18T14:36:26;86.85;;;30.50;;
73954;SDS011;62306;52.516;13.290;2022-12-18T14:38:55;89.40;;;28.58;;
73954;SDS011;62306;52.516;13.290;2022-12-18T14:41:23;90.43;;;33.47;;
73954;SDS011;62306;52.516;13.290;2022-12-18T14:43:51;90.45;;;30.33;;
73954;SDS011;62306;52.516;13.290;2022-12-18T14:46:30;89.88;;;29.95;;